createdAt,value
2023-03-15T05:56:13.574Z,97399.25
2023-03-15T06:16:16.236Z,97400.47
2023-03-15T06:56:40.804Z,97506.16
2023-03-15T07:16:44.367Z,97539.41
2023-03-15T07:57:06.745Z,97584.66
2023-03-15T08:17:28.660Z,97601.09
2023-03-15T08:37:31.322Z,97642.44
2023-03-15T08:57:36.771Z,97651.50
2023-03-15T09:17:39.468Z,97664.56
2023-03-15T09:37:43.635Z,97694.53
2023-03-15T09:57:46.204Z,97695.03
2023-03-15T10:38:19.985Z,97708.16
2023-03-15T10:58:24.827Z,97715.13
2023-03-15T11:18:28.103Z,97722.47
2023-03-15T11:38:30.630Z,97738.63
2023-03-15T11:58:35.517Z,97731.34
2023-03-15T12:18:45.145Z,97739.84
2023-03-15T12:38:54.029Z,97755.66
2023-03-15T12:58:58.432Z,97765.59
2023-03-15T13:19:00.856Z,97786.75
2023-03-15T13:39:07.260Z,97798.22
2023-03-15T13:59:09.932Z,97816.13
2023-03-15T14:19:12.885Z,97858.81
2023-03-15T14:39:15.481Z,97843.22
2023-03-15T14:59:18.558Z,97847.31
2023-03-15T15:19:21.492Z,97864.34
2023-03-15T15:39:23.984Z,97861.97
2023-03-15T15:59:26.854Z,97869.00
2023-03-15T16:19:29.834Z,97874.13
2023-03-15T16:39:32.746Z,97892.00
2023-03-15T16:59:35.394Z,97902.00
2023-03-15T17:19:38.395Z,97922.06
2023-03-15T17:39:40.871Z,97948.63
2023-03-15T17:59:43.634Z,97975.16
2023-03-15T18:19:47.190Z,97978.25
2023-03-15T18:39:49.973Z,97988.22
2023-03-15T18:59:52.602Z,98002.00
2023-03-15T19:20:02.667Z,98012.72
2023-03-15T19:40:05.794Z,98035.00
2023-03-15T20:00:13.706Z,98045.34
2023-03-15T20:20:16.497Z,98071.72
2023-03-15T20:40:19.226Z,98081.53
2023-03-15T21:00:22.149Z,98100.44
2023-03-15T21:20:26.114Z,98117.78
